createdAt,value
2022-12-22T00:00:51.406Z,8.56
2022-12-22T00:01:51.533Z,8.56
2022-12-22T00:02:51.514Z,8.56
2022-12-22T00:03:51.660Z,8.51
2022-12-22T00:04:51.390Z,8.60
2022-12-22T00:05:51.383Z,8.52
2022-12-22T00:06:51.423Z,8.60
2022-12-22T00:07:51.371Z,8.60
2022-12-22T00:08:51.383Z,8.48
2022-12-22T00:09:51.367Z,8.58
2022-12-22T00:10:51.382Z,8.55
2022-12-22T00:11:51.354Z,8.53
2022-12-22T00:12:51.361Z,8.53
2022-12-22T00:13:51.363Z,8.61
2022-12-22T00:14:51.344Z,8.60
2022-12-22T00:15:51.333Z,8.53
2022-12-22T00:16:51.378Z,8.66
2022-12-22T00:17:51.326Z,8.63
2022-12-22T00:18:51.333Z,8.61
2022-12-22T00:19:51.319Z,8.63
2022-12-22T00:20:51.319Z,8.64
2022-12-22T00:21:51.313Z,8.66
2022-12-22T00:22:51.392Z,8.58
2022-12-22T00:23:51.304Z,8.70
2022-12-22T00:24:51.300Z,8.69
2022-12-22T00:25:51.292Z,8.64
2022-12-22T00:26:51.291Z,8.66
2022-12-22T00:27:51.281Z,8.60
2022-12-22T00:28:51.284Z,8.61
2022-12-22T00:29:51.280Z,8.67
2022-12-22T00:30:51.321Z,8.67
2022-12-22T00:31:51.270Z,8.64
2022-12-22T00:32:51.269Z,8.61
2022-12-22T00:33:51.263Z,8.67
2022-12-22T00:34:51.260Z,8.66
2022-12-22T00:35:51.257Z,8.67
2022-12-22T00:36:51.247Z,8.64
2022-12-22T00:37:51.243Z,8.69
2022-12-22T00:38:51.272Z,8.67
2022-12-22T00:39:51.237Z,8.63
2022-12-22T00:40:51.231Z,8.70
2022-12-22T00:41:51.224Z,8.66
2022-12-22T00:42:51.235Z,8.64
2022-12-22T00:43:51.218Z,8.70
2022-12-22T00:44:51.212Z,8.66
2022-12-22T00:45:51.599Z,8.64
2022-12-22T00:46:51.207Z,8.66
2022-12-22T00:47:51.217Z,8.61
2022-12-22T00:48:51.198Z,8.67
2022-12-22T00:49:51.200Z,8.63
2022-12-22T00:50:51.200Z,8.64
2022-12-22T00:51:51.184Z,8.61
2022-12-22T00:52:51.182Z,8.60
2022-12-22T00:53:51.179Z,8.66
2022-12-22T00:54:51.195Z,8.58
2022-12-22T00:55:51.165Z,8.55
2022-12-22T00:56:51.166Z,8.55
2022-12-22T00:57:51.159Z,8.60
2022-12-22T00:58:51.160Z,8.56
2022-12-22T00:59:51.155Z,8.58
2022-12-22T01:00:51.151Z,8.61
2022-12-22T01:01:51.261Z,8.58
2022-12-22T01:02:51.274Z,8.67
2022-12-22T01:03:51.284Z,8.61
2022-12-22T01:04:51.127Z,8.64
2022-12-22T01:05:51.124Z,8.66
2022-12-22T01:06:51.120Z,8.66
2022-12-22T01:07:51.114Z,8.69
2022-12-22T01:08:51.111Z,8.66
2022-12-22T01:09:51.131Z,8.64
2022-12-22T01:10:51.144Z,8.69
2022-12-22T01:11:51.104Z,8.64
2022-12-22T01:12:51.092Z,8.66
2022-12-22T01:13:51.109Z,8.61
2022-12-22T01:14:51.087Z,8.64
2022-12-22T01:15:51.121Z,8.71
2022-12-22T01:16:51.072Z,8.61
2022-12-22T01:17:51.078Z,8.64
2022-12-22T01:18:51.067Z,8.71
2022-12-22T01:19:51.065Z,8.69
2022-12-22T01:20:51.059Z,8.67
2022-12-22T01:21:51.056Z,8.66
2022-12-22T01:22:51.049Z,8.64
2022-12-22T01:23:51.107Z,8.70
2022-12-22T01:24:51.042Z,8.69
2022-12-22T01:25:51.048Z,8.61
2022-12-22T01:26:51.050Z,8.66
2022-12-22T01:27:51.029Z,8.64
2022-12-22T01:28:51.024Z,8.69
2022-12-22T01:29:51.073Z,8.63
2022-12-22T01:30:51.090Z,8.61
2022-12-22T01:31:51.014Z,8.66
2022-12-22T01:32:51.014Z,8.66
2022-12-22T01:33:51.005Z,8.67
2022-12-22T01:34:51.000Z,8.64
2022-12-22T01:35:51.002Z,8.67
2022-12-22T01:36:50.990Z,8.70
2022-12-22T01:37:50.989Z,8.64
2022-12-22T01:38:50.984Z,8.70
2022-12-22T01:39:50.981Z,8.70
2022-12-22T01:40:50.974Z,8.69
2022-12-22T01:41:50.989Z,8.74
2022-12-22T01:42:50.989Z,8.74
2022-12-22T01:43:50.961Z,8.71
2022-12-22T01:44:50.956Z,8.81
2022-12-22T01:45:51.054Z,8.74
2022-12-22T01:46:51.125Z,8.85
2022-12-22T01:47:50.951Z,8.73
2022-12-22T01:48:50.956Z,8.73
2022-12-22T01:49:50.937Z,8.78
2022-12-22T01:50:50.940Z,8.79
2022-12-22T01:51:50.956Z,8.88
2022-12-22T01:52:50.941Z,8.87
2022-12-22T01:53:50.937Z,8.89
2022-12-22T01:54:50.917Z,8.89
2022-12-22T01:55:50.911Z,8.92
2022-12-22T01:56:50.906Z,8.95
2022-12-22T01:57:50.910Z,8.91
2022-12-22T01:58:50.928Z,8.91
2022-12-22T01:59:50.929Z,8.95
2022-12-22T02:00:50.889Z,8.88
2022-12-22T02:01:50.990Z,8.92
2022-12-22T02:02:51.077Z,8.91
2022-12-22T02:03:50.909Z,8.95
2022-12-22T02:04:50.883Z,8.92
2022-12-22T02:05:50.869Z,8.97
2022-12-22T02:06:56.199Z,8.97
2022-12-22T02:07:50.861Z,9.03
2022-12-22T02:08:50.858Z,9.03
2022-12-22T02:09:50.856Z,8.97
2022-12-22T02:10:50.851Z,8.95
2022-12-22T02:11:50.855Z,8.97
2022-12-22T02:12:50.848Z,8.94
2022-12-22T02:13:50.837Z,9.03
2022-12-22T02:14:50.856Z,8.97
2022-12-22T02:15:50.840Z,9.00
2022-12-22T02:16:50.827Z,9.00
2022-12-22T02:17:50.830Z,8.94
2022-12-22T02:18:50.819Z,9.03
2022-12-22T02:19:50.811Z,8.89
2022-12-22T02:20:50.808Z,8.97
2022-12-22T02:21:50.808Z,8.95
2022-12-22T02:22:50.797Z,8.94
2022-12-22T02:23:50.799Z,8.92
2022-12-22T02:24:50.789Z,8.91
2022-12-22T02:25:50.786Z,8.94
2022-12-22T02:26:50.786Z,8.91
2022-12-22T02:27:50.780Z,8.91
2022-12-22T02:28:50.777Z,8.94
2022-12-22T02:29:50.780Z,8.91
2022-12-22T02:30:50.868Z,8.88
2022-12-22T02:31:50.801Z,8.91
2022-12-22T02:32:50.759Z,8.92
2022-12-22T02:33:50.752Z,8.94
2022-12-22T02:34:50.746Z,8.91
2022-12-22T02:35:50.746Z,8.85
2022-12-22T02:36:50.739Z,8.89
2022-12-22T02:37:50.737Z,8.79
2022-12-22T02:38:50.753Z,8.88
2022-12-22T02:39:50.729Z,8.95
2022-12-22T02:40:50.725Z,8.89
2022-12-22T02:41:50.720Z,8.85
2022-12-22T02:42:50.716Z,8.87
2022-12-22T02:43:50.715Z,8.85
2022-12-22T02:44:50.709Z,8.88
2022-12-22T02:45:50.706Z,8.95
2022-12-22T02:46:50.741Z,8.92
2022-12-22T02:47:50.693Z,8.91
2022-12-22T02:48:50.688Z,8.82
2022-12-22T02:49:50.688Z,8.92
2022-12-22T02:50:50.694Z,8.94
2022-12-22T02:51:50.679Z,8.89
2022-12-22T02:52:50.680Z,8.91
2022-12-22T02:53:50.668Z,8.81
2022-12-22T02:54:50.666Z,8.99
2022-12-22T02:55:50.668Z,8.81
2022-12-22T02:56:50.661Z,8.87
2022-12-22T02:57:50.651Z,8.89
2022-12-22T02:58:50.645Z,8.91
2022-12-22T02:59:50.649Z,8.94
2022-12-22T03:00:50.642Z,8.85
2022-12-22T03:01:50.719Z,8.87
2022-12-22T03:02:50.921Z,8.89
2022-12-22T03:03:50.788Z,8.89
2022-12-22T03:04:50.622Z,8.81
2022-12-22T03:05:50.626Z,8.89
2022-12-22T03:06:50.625Z,8.88
2022-12-22T03:07:50.635Z,8.88
2022-12-22T03:08:50.614Z,8.91
2022-12-22T03:09:50.607Z,8.92
2022-12-22T03:10:50.603Z,8.91
2022-12-22T03:11:50.598Z,8.95
2022-12-22T03:12:50.599Z,8.95
2022-12-22T03:13:50.589Z,8.97
2022-12-22T03:14:50.584Z,8.97
2022-12-22T03:15:50.637Z,8.92
2022-12-22T03:16:50.574Z,8.95
2022-12-22T03:17:50.575Z,8.88
2022-12-22T03:18:50.586Z,8.92
2022-12-22T03:19:50.571Z,8.91
2022-12-22T03:20:50.558Z,8.94
2022-12-22T03:21:50.558Z,8.97
2022-12-22T03:22:50.550Z,8.92
2022-12-22T03:23:50.542Z,8.92
2022-12-22T03:24:50.542Z,8.92
2022-12-22T03:25:50.534Z,8.91
2022-12-22T03:26:50.537Z,8.95
2022-12-22T03:27:50.525Z,8.94
2022-12-22T03:28:50.524Z,8.94
2022-12-22T03:29:50.525Z,8.94
2022-12-22T03:30:50.516Z,8.82
2022-12-22T03:31:50.584Z,8.91
2022-12-22T03:32:50.506Z,8.81
2022-12-22T03:33:50.504Z,8.94
2022-12-22T03:34:50.524Z,8.85
2022-12-22T03:35:50.496Z,8.91
2022-12-22T03:36:50.492Z,8.82
2022-12-22T03:37:50.484Z,8.87
2022-12-22T03:38:50.494Z,8.89
2022-12-22T03:39:50.487Z,8.94
2022-12-22T03:40:50.497Z,8.88
2022-12-22T03:41:50.479Z,8.94
2022-12-22T03:42:50.467Z,8.91
2022-12-22T03:43:50.461Z,8.97
2022-12-22T03:44:50.464Z,8.97
2022-12-22T03:45:50.458Z,8.99
2022-12-22T03:46:50.554Z,8.92
2022-12-22T03:47:50.457Z,8.89
2022-12-22T03:48:50.442Z,8.92
2022-12-22T03:49:50.439Z,8.92
2022-12-22T03:50:50.462Z,8.84
2022-12-22T03:51:50.432Z,8.91
2022-12-22T03:52:50.426Z,8.91
2022-12-22T03:53:50.423Z,8.88
2022-12-22T03:54:50.421Z,8.97
2022-12-22T03:55:50.413Z,8.92
2022-12-22T03:56:50.422Z,9.00
2022-12-22T03:57:50.416Z,9.03
2022-12-22T03:58:50.407Z,9.08
2022-12-22T03:59:50.399Z,9.11
2022-12-22T04:00:50.435Z,9.11
2022-12-22T04:01:50.600Z,9.11
2022-12-22T04:02:50.565Z,9.19
2022-12-22T04:03:50.381Z,9.13
2022-12-22T04:04:50.377Z,9.19
2022-12-22T04:05:50.372Z,9.19
2022-12-22T04:06:50.397Z,9.23
2022-12-22T04:07:50.362Z,9.21
2022-12-22T04:08:50.367Z,9.28
2022-12-22T04:09:50.355Z,9.21
2022-12-22T04:10:50.350Z,9.25
2022-12-22T04:11:50.350Z,9.31
2022-12-22T04:12:50.345Z,9.22
2022-12-22T04:13:50.340Z,9.28
2022-12-22T04:14:50.335Z,9.36
2022-12-22T04:15:50.329Z,9.29
2022-12-22T04:16:50.363Z,9.29
2022-12-22T04:17:50.327Z,9.34
2022-12-22T04:18:50.332Z,9.34
2022-12-22T04:19:50.312Z,9.34
2022-12-22T04:20:50.309Z,9.31
2022-12-22T04:21:50.303Z,9.36
2022-12-22T04:22:50.322Z,9.34
2022-12-22T04:23:50.297Z,9.31
2022-12-22T04:24:50.291Z,9.29
2022-12-22T04:25:50.292Z,9.32
2022-12-22T04:26:50.299Z,9.28
2022-12-22T04:27:50.278Z,9.25
2022-12-22T04:28:50.318Z,9.25
2022-12-22T04:29:50.276Z,9.21
2022-12-22T04:30:50.268Z,9.18
2022-12-22T04:31:50.377Z,9.25
2022-12-22T04:32:50.264Z,9.21
2022-12-22T04:33:50.260Z,9.22
2022-12-22T04:34:50.252Z,9.25
2022-12-22T04:35:50.249Z,9.21
2022-12-22T04:36:50.244Z,9.23
2022-12-22T04:37:50.295Z,9.11
2022-12-22T04:38:50.274Z,9.23
2022-12-22T04:39:50.247Z,9.14
2022-12-22T04:40:50.228Z,9.14
2022-12-22T04:41:50.225Z,9.25
2022-12-22T04:42:50.219Z,9.21
2022-12-22T04:43:50.214Z,9.19
2022-12-22T04:44:50.211Z,9.13
2022-12-22T04:45:50.264Z,9.23
2022-12-22T04:46:50.203Z,9.14
2022-12-22T04:47:50.203Z,9.22
2022-12-22T04:48:53.261Z,9.22
2022-12-22T04:49:50.190Z,9.19
2022-12-22T04:50:50.186Z,9.19
2022-12-22T04:51:50.180Z,9.23
2022-12-22T04:52:50.181Z,9.22
2022-12-22T04:53:50.181Z,9.22
2022-12-22T04:54:50.221Z,9.21
2022-12-22T04:55:50.166Z,9.25
2022-12-22T04:56:50.163Z,9.21
2022-12-22T04:57:50.158Z,9.28
2022-12-22T04:58:50.162Z,9.29
2022-12-22T04:59:50.152Z,9.19
2022-12-22T05:00:50.216Z,9.26
2022-12-22T05:01:50.209Z,9.19
2022-12-22T05:02:50.290Z,9.28
2022-12-22T05:03:50.222Z,9.21
2022-12-22T05:04:50.135Z,9.21
2022-12-22T05:05:50.126Z,9.31
2022-12-22T05:06:50.134Z,9.31
2022-12-22T05:07:50.118Z,9.21
2022-12-22T05:08:50.116Z,9.26
2022-12-22T05:09:50.111Z,9.23
2022-12-22T05:10:50.131Z,9.21
2022-12-22T05:11:50.099Z,9.18
2022-12-22T05:12:50.101Z,9.18
2022-12-22T05:13:50.097Z,9.13
2022-12-22T05:14:50.090Z,9.22
2022-12-22T05:15:50.082Z,9.25
2022-12-22T05:16:50.113Z,9.22
2022-12-22T05:17:50.089Z,9.25
2022-12-22T05:18:50.079Z,9.23
2022-12-22T05:19:50.076Z,9.23
2022-12-22T05:20:50.072Z,9.23
2022-12-22T05:21:50.060Z,9.22
2022-12-22T05:22:50.076Z,9.21
2022-12-22T05:23:50.110Z,9.22
2022-12-22T05:24:50.051Z,9.25
2022-12-22T05:25:50.043Z,9.28
2022-12-22T05:26:50.063Z,9.21
2022-12-22T05:27:50.055Z,9.26
2022-12-22T05:28:50.035Z,9.21
2022-12-22T05:29:50.036Z,9.22
2022-12-22T05:30:50.084Z,9.25
2022-12-22T05:31:50.030Z,9.28
2022-12-22T05:32:50.017Z,9.39
2022-12-22T05:33:50.026Z,9.29
2022-12-22T05:34:50.042Z,9.40
2022-12-22T05:35:50.006Z,9.46
2022-12-22T05:36:50.001Z,9.48
2022-12-22T05:37:50.004Z,9.58
2022-12-22T05:38:49.997Z,9.59
2022-12-22T05:39:49.990Z,9.47
2022-12-22T05:40:49.991Z,9.54
2022-12-22T05:41:49.996Z,9.44
2022-12-22T05:42:50.002Z,9.46
2022-12-22T05:43:49.971Z,9.44
2022-12-22T05:44:49.969Z,9.44
2022-12-22T05:45:50.041Z,9.44
2022-12-22T05:46:49.962Z,9.41
2022-12-22T05:47:49.963Z,9.40
2022-12-22T05:48:49.954Z,9.31
2022-12-22T05:49:49.949Z,9.31
2022-12-22T05:50:49.944Z,9.34
2022-12-22T05:51:49.940Z,9.25
2022-12-22T05:52:49.938Z,9.22
2022-12-22T05:53:49.956Z,9.22
2022-12-22T05:54:49.945Z,9.28
2022-12-22T05:55:49.923Z,9.25
2022-12-22T05:56:49.920Z,9.25
2022-12-22T05:57:49.916Z,9.26
2022-12-22T05:58:49.940Z,9.39
2022-12-22T05:59:49.917Z,9.41
2022-12-22T06:00:49.903Z,9.58
2022-12-22T06:01:49.921Z,9.46
2022-12-22T06:02:50.072Z,9.44
2022-12-22T06:03:53.361Z,9.48
2022-12-22T06:04:49.890Z,9.46
2022-12-22T06:05:49.888Z,9.41
2022-12-22T06:06:49.889Z,9.44
2022-12-22T06:07:49.881Z,9.41
2022-12-22T06:08:49.897Z,9.31
2022-12-22T06:09:49.868Z,9.29
2022-12-22T06:10:49.872Z,9.37
2022-12-22T06:11:49.861Z,9.25
2022-12-22T06:12:49.871Z,9.29
2022-12-22T06:13:49.858Z,9.31
2022-12-22T06:14:49.879Z,9.28
2022-12-22T06:15:49.965Z,9.34
2022-12-22T06:16:49.841Z,9.26
2022-12-22T06:17:49.845Z,9.44
2022-12-22T06:18:49.844Z,9.44
2022-12-22T06:19:49.837Z,9.58
2022-12-22T06:20:49.834Z,9.58
2022-12-22T06:21:49.825Z,9.58
2022-12-22T06:22:49.822Z,9.61
2022-12-22T06:23:49.815Z,9.48
2022-12-22T06:24:49.821Z,9.48
2022-12-22T06:25:49.826Z,9.46
2022-12-22T06:26:49.803Z,9.47
2022-12-22T06:27:49.809Z,9.48
2022-12-22T06:28:49.796Z,9.40
2022-12-22T06:29:49.792Z,9.34
2022-12-22T06:30:49.841Z,9.31
2022-12-22T06:31:49.844Z,9.26
2022-12-22T06:32:49.778Z,9.34
2022-12-22T06:33:49.774Z,9.29
2022-12-22T06:34:49.771Z,9.32
2022-12-22T06:35:57.404Z,9.36
2022-12-22T06:36:49.765Z,9.22
2022-12-22T06:37:49.756Z,9.22
2022-12-22T06:38:49.763Z,9.21
2022-12-22T06:39:49.748Z,9.22
2022-12-22T06:40:49.746Z,9.22
2022-12-22T06:41:49.743Z,9.22
2022-12-22T06:42:49.751Z,9.19
2022-12-22T06:43:49.739Z,9.19
2022-12-22T06:44:49.731Z,9.26
2022-12-22T06:45:49.743Z,9.22
2022-12-22T06:46:49.821Z,9.23
2022-12-22T06:47:49.785Z,9.18
2022-12-22T06:48:49.717Z,9.22
2022-12-22T06:49:49.751Z,9.25
2022-12-22T06:50:49.705Z,9.22
2022-12-22T06:51:49.701Z,9.21
2022-12-22T06:52:49.700Z,9.22
2022-12-22T06:53:49.696Z,9.21
2022-12-22T06:54:49.688Z,9.18
2022-12-22T06:55:49.689Z,9.18
2022-12-22T06:56:49.682Z,9.10
2022-12-22T06:57:49.687Z,9.23
2022-12-22T06:58:49.683Z,9.22
2022-12-22T06:59:55.348Z,9.21
2022-12-22T07:00:49.716Z,9.22
2022-12-22T07:01:49.827Z,9.19
2022-12-22T07:02:49.961Z,9.23
2022-12-22T07:03:49.672Z,9.25
2022-12-22T07:04:49.656Z,9.21
2022-12-22T07:05:49.648Z,9.16
2022-12-22T07:06:49.651Z,9.14
2022-12-22T07:07:49.642Z,9.18
2022-12-22T07:08:49.634Z,9.18
2022-12-22T07:09:49.631Z,9.11
2022-12-22T07:10:49.627Z,9.08
2022-12-22T07:11:49.625Z,9.10
2022-12-22T07:12:49.618Z,9.16
2022-12-22T07:13:49.614Z,9.10
2022-12-22T07:14:49.612Z,9.19
2022-12-22T07:15:55.599Z,9.19
2022-12-22T07:16:49.721Z,9.16
2022-12-22T07:17:49.602Z,9.21
2022-12-22T07:18:49.613Z,9.21
2022-12-22T07:19:49.589Z,9.11
2022-12-22T07:20:49.601Z,9.16
2022-12-22T07:21:49.579Z,9.19
2022-12-22T07:22:49.585Z,9.08
2022-12-22T07:23:49.573Z,9.00
2022-12-22T07:24:49.573Z,9.00
2022-12-22T07:25:49.589Z,8.97
2022-12-22T07:26:49.565Z,8.97
2022-12-22T07:27:49.564Z,8.95
2022-12-22T07:28:49.552Z,9.03
2022-12-22T07:29:49.554Z,9.03
2022-12-22T07:30:49.624Z,9.02
2022-12-22T07:31:49.617Z,9.02
2022-12-22T07:32:49.546Z,8.94
2022-12-22T07:33:49.541Z,8.97
2022-12-22T07:34:49.550Z,8.95
2022-12-22T07:35:49.547Z,9.02
2022-12-22T07:36:49.526Z,8.99
2022-12-22T07:37:49.545Z,8.92
2022-12-22T07:38:49.566Z,9.02
2022-12-22T07:39:49.507Z,9.00
2022-12-22T07:40:52.120Z,9.06
2022-12-22T07:41:49.533Z,9.02
2022-12-22T07:42:49.495Z,9.03
2022-12-22T07:43:49.507Z,9.08
2022-12-22T07:44:49.567Z,9.08
2022-12-22T07:45:49.499Z,9.16
2022-12-22T07:46:49.567Z,9.08
2022-12-22T07:47:49.504Z,9.06
2022-12-22T07:48:49.472Z,9.10
2022-12-22T07:49:49.476Z,9.10
2022-12-22T07:50:49.547Z,9.18
2022-12-22T07:51:49.477Z,9.16
2022-12-22T07:52:49.456Z,9.04
2022-12-22T07:53:49.455Z,9.11
2022-12-22T07:54:49.449Z,9.10
2022-12-22T07:55:49.452Z,9.11
2022-12-22T07:56:49.443Z,9.13
2022-12-22T07:57:49.438Z,9.13
2022-12-22T07:58:49.434Z,9.25
2022-12-22T07:59:49.434Z,9.32
2022-12-22T08:00:49.423Z,9.28
2022-12-22T08:01:49.524Z,9.37
2022-12-22T08:02:49.590Z,9.47
2022-12-22T08:03:49.416Z,9.56
2022-12-22T08:04:49.470Z,9.58
2022-12-22T08:05:49.405Z,9.66
2022-12-22T08:06:49.424Z,9.66
2022-12-22T08:07:49.398Z,9.64
2022-12-22T08:08:49.392Z,9.69
2022-12-22T08:09:49.392Z,9.72
2022-12-22T08:10:49.430Z,9.79
2022-12-22T08:11:49.381Z,9.69
2022-12-22T08:12:49.462Z,9.73
2022-12-22T08:13:49.386Z,9.77
2022-12-22T08:14:49.374Z,9.77
2022-12-22T08:15:49.503Z,9.77
2022-12-22T08:16:49.540Z,9.82
2022-12-22T08:17:49.359Z,9.80
2022-12-22T08:18:49.354Z,9.77
2022-12-22T08:19:49.351Z,9.79
2022-12-22T08:20:49.346Z,9.80
2022-12-22T08:21:53.034Z,9.76
2022-12-22T08:22:49.360Z,9.80
2022-12-22T08:23:49.339Z,9.76
2022-12-22T08:24:49.334Z,9.76
2022-12-22T08:25:49.332Z,9.77
2022-12-22T08:26:49.331Z,9.80
2022-12-22T08:27:49.316Z,9.84
2022-12-22T08:28:49.316Z,9.74
2022-12-22T08:29:49.311Z,9.80
2022-12-22T08:30:49.305Z,9.84
2022-12-22T08:31:49.446Z,9.76
2022-12-22T08:32:49.299Z,9.83
2022-12-22T08:33:49.294Z,9.86
2022-12-22T08:34:49.293Z,9.76
2022-12-22T08:35:49.289Z,9.80
2022-12-22T08:36:49.294Z,9.83
2022-12-22T08:37:49.277Z,9.73
2022-12-22T08:38:49.309Z,9.69
2022-12-22T08:39:49.269Z,9.68
2022-12-22T08:40:49.264Z,9.73
2022-12-22T08:41:49.261Z,9.82
2022-12-22T08:42:49.254Z,9.74
2022-12-22T08:43:49.254Z,9.68
2022-12-22T08:44:49.245Z,9.66
2022-12-22T08:45:49.243Z,9.68
2022-12-22T08:46:49.308Z,9.69
2022-12-22T08:47:49.237Z,9.72
2022-12-22T08:48:49.230Z,9.68
2022-12-22T08:49:49.228Z,9.65
2022-12-22T08:50:49.230Z,9.68
2022-12-22T08:51:49.226Z,9.66
2022-12-22T08:52:49.229Z,9.65
2022-12-22T08:54:06.201Z,9.73
2022-12-22T08:54:49.228Z,9.69
2022-12-22T08:55:49.204Z,9.73
2022-12-22T08:56:49.209Z,9.66
2022-12-22T08:57:55.665Z,9.69
2022-12-22T08:58:49.190Z,9.69
2022-12-22T08:59:49.196Z,9.64
2022-12-22T09:00:49.254Z,9.72
2022-12-22T09:01:49.300Z,9.65
2022-12-22T09:02:49.354Z,9.73
2022-12-22T09:03:49.169Z,9.68
2022-12-22T09:04:49.164Z,9.68
2022-12-22T09:05:49.159Z,9.69
2022-12-22T09:06:49.183Z,9.64
2022-12-22T09:07:49.179Z,9.64
2022-12-22T09:08:49.166Z,9.66
2022-12-22T09:09:49.146Z,9.66
2022-12-22T09:10:49.168Z,9.66
2022-12-22T09:11:49.139Z,9.66
2022-12-22T09:12:49.128Z,9.64
2022-12-22T09:13:49.129Z,9.68
2022-12-22T09:14:49.121Z,9.72
2022-12-22T09:15:49.142Z,9.68
2022-12-22T09:16:49.216Z,9.65
2022-12-22T09:17:49.109Z,9.65
2022-12-22T09:18:49.105Z,9.66
2022-12-22T09:19:49.105Z,9.69
2022-12-22T09:20:49.094Z,9.73
2022-12-22T09:21:49.097Z,9.77
2022-12-22T09:22:49.100Z,9.74
2022-12-22T09:23:49.085Z,9.66
2022-12-22T09:24:49.084Z,9.69
2022-12-22T09:25:49.074Z,9.65
2022-12-22T09:26:49.444Z,9.68
2022-12-22T09:27:49.098Z,9.72
2022-12-22T09:28:50.790Z,9.76
2022-12-22T09:29:49.068Z,9.68
2022-12-22T09:30:49.054Z,9.72
2022-12-22T09:31:49.155Z,9.74
2022-12-22T09:32:49.043Z,9.72
2022-12-22T09:33:49.055Z,9.74
2022-12-22T09:34:49.037Z,9.72
2022-12-22T09:35:49.036Z,9.69
2022-12-22T09:36:49.049Z,9.74
2022-12-22T09:37:49.065Z,9.74
2022-12-22T09:38:49.042Z,9.72
2022-12-22T09:39:49.016Z,9.72
2022-12-22T09:40:49.012Z,9.73
2022-12-22T09:41:49.009Z,9.72
2022-12-22T09:42:49.026Z,9.72
2022-12-22T09:43:49.004Z,9.72
2022-12-22T09:44:48.995Z,9.68
2022-12-22T09:45:49.073Z,9.66
2022-12-22T09:46:48.986Z,9.68
2022-12-22T09:47:48.984Z,9.64
2022-12-22T09:48:48.979Z,9.65
2022-12-22T09:49:48.973Z,9.66
2022-12-22T09:50:48.972Z,9.64
2022-12-22T09:51:48.988Z,9.62
2022-12-22T09:52:48.963Z,9.68
2022-12-22T09:53:48.960Z,9.69
2022-12-22T09:54:48.959Z,9.69
2022-12-22T09:55:48.953Z,9.74
2022-12-22T09:56:48.957Z,9.76
2022-12-22T09:57:48.953Z,9.79
2022-12-22T09:58:48.960Z,9.76
2022-12-22T09:59:48.937Z,9.76
2022-12-22T10:00:48.974Z,9.68
2022-12-22T10:01:49.012Z,9.73
2022-12-22T10:02:48.934Z,9.68
2022-12-22T10:03:49.017Z,9.74
2022-12-22T10:04:48.912Z,9.72
2022-12-22T10:05:48.910Z,9.79
2022-12-22T10:06:48.904Z,9.66
2022-12-22T10:07:48.920Z,9.68
2022-12-22T10:08:48.894Z,9.65
2022-12-22T10:09:51.285Z,9.68
2022-12-22T10:10:48.893Z,9.62
2022-12-22T10:11:48.886Z,9.58
2022-12-22T10:12:48.879Z,9.58
2022-12-22T10:13:48.887Z,9.51
2022-12-22T10:14:48.894Z,9.58
2022-12-22T10:15:48.878Z,9.51
2022-12-22T10:16:48.939Z,9.47
2022-12-22T10:17:48.862Z,9.47
2022-12-22T10:18:48.857Z,9.55
2022-12-22T10:19:48.853Z,9.59
2022-12-22T10:20:48.847Z,9.55
2022-12-22T10:21:48.844Z,9.56
2022-12-22T10:22:48.849Z,9.55
2022-12-22T10:23:48.836Z,9.56
2022-12-22T10:24:48.834Z,9.54
2022-12-22T10:26:48.822Z,9.48
2022-12-22T10:27:51.565Z,9.50
2022-12-22T10:28:48.820Z,9.54
2022-12-22T10:29:48.835Z,9.54
2022-12-22T10:30:48.831Z,9.51
2022-12-22T10:31:48.867Z,9.51
2022-12-22T10:32:48.808Z,9.56
2022-12-22T10:33:48.804Z,9.54
2022-12-22T10:34:48.793Z,9.48
2022-12-22T10:35:48.795Z,9.40
2022-12-22T10:36:48.782Z,9.39
2022-12-22T10:37:48.782Z,9.58
2022-12-22T10:38:48.777Z,9.43
2022-12-22T10:39:48.776Z,9.44
2022-12-22T10:40:48.776Z,9.48
2022-12-22T10:41:48.798Z,9.48
2022-12-22T10:42:48.757Z,9.51
2022-12-22T10:43:48.755Z,9.54
2022-12-22T10:44:48.782Z,9.54
2022-12-22T10:45:48.796Z,9.56
2022-12-22T10:46:48.760Z,9.55
2022-12-22T10:47:48.738Z,9.56
2022-12-22T10:48:48.743Z,9.44
2022-12-22T10:49:48.738Z,9.41
2022-12-22T10:50:48.731Z,9.47
2022-12-22T10:51:48.723Z,9.48
2022-12-22T10:52:48.724Z,9.41
2022-12-22T10:53:48.725Z,9.47
2022-12-22T10:54:48.710Z,9.41
2022-12-22T10:55:48.705Z,9.48
2022-12-22T10:56:48.701Z,9.43
2022-12-22T10:57:48.709Z,9.47
2022-12-22T10:58:48.695Z,9.41
2022-12-22T10:59:48.688Z,9.50
2022-12-22T11:00:48.684Z,9.44
2022-12-22T11:01:48.864Z,9.40
2022-12-22T11:02:48.895Z,9.47
2022-12-22T11:03:48.713Z,9.50
2022-12-22T11:04:48.672Z,9.58
2022-12-22T11:05:48.667Z,9.54
2022-12-22T11:06:48.669Z,9.51
2022-12-22T11:07:48.686Z,9.62
2022-12-22T11:08:51.508Z,9.58
2022-12-22T11:09:48.671Z,9.64
2022-12-22T11:10:48.648Z,9.69
2022-12-22T11:11:48.650Z,9.66
2022-12-22T11:12:48.635Z,9.66
2022-12-22T11:13:48.634Z,9.68
2022-12-22T11:14:48.628Z,9.66
2022-12-22T11:15:48.625Z,9.69
2022-12-22T11:16:48.655Z,9.80
2022-12-22T11:17:48.623Z,9.86
2022-12-22T11:18:48.659Z,9.83
2022-12-22T11:19:48.616Z,9.80
2022-12-22T11:20:48.603Z,9.87
2022-12-22T11:21:48.612Z,9.80
2022-12-22T11:22:48.598Z,9.84
2022-12-22T11:23:48.597Z,9.86
2022-12-22T11:24:48.590Z,9.86
2022-12-22T11:25:48.587Z,9.87
2022-12-22T11:26:48.586Z,9.84
2022-12-22T11:27:48.585Z,9.82
2022-12-22T11:28:48.584Z,9.86
2022-12-22T11:29:48.572Z,9.84
2022-12-22T11:30:48.602Z,9.94
2022-12-22T11:31:48.768Z,9.92
2022-12-22T11:32:48.568Z,9.91
2022-12-22T11:33:48.554Z,9.97
2022-12-22T11:34:48.573Z,9.98
2022-12-22T11:35:48.546Z,9.95
2022-12-22T11:36:48.565Z,9.92
2022-12-22T11:37:48.567Z,9.94
2022-12-22T11:38:48.537Z,9.94
2022-12-22T11:39:48.543Z,9.83
2022-12-22T11:40:48.541Z,9.83
2022-12-22T11:41:48.534Z,9.69
2022-12-22T11:42:48.515Z,9.72
2022-12-22T11:43:48.520Z,9.69
2022-12-22T11:44:48.512Z,9.69
2022-12-22T11:45:48.522Z,9.68
2022-12-22T11:46:48.589Z,9.66
2022-12-22T11:47:48.498Z,9.69
2022-12-22T11:48:48.503Z,9.66
2022-12-22T11:49:48.489Z,9.51
2022-12-22T11:51:01.518Z,9.50
2022-12-22T11:51:48.481Z,9.51
2022-12-22T11:52:48.531Z,9.58
2022-12-22T11:53:48.480Z,9.58
2022-12-22T11:54:48.474Z,9.59
2022-12-22T11:55:48.470Z,9.59
2022-12-22T11:56:48.480Z,9.65
2022-12-22T11:57:48.474Z,9.68
2022-12-22T11:58:48.481Z,9.72
2022-12-22T11:59:48.457Z,9.72
2022-12-22T12:01:17.529Z,9.74
2022-12-22T12:01:48.540Z,9.76
2022-12-22T12:02:48.515Z,9.76
2022-12-22T12:03:48.497Z,9.72
2022-12-22T12:04:48.440Z,9.64
2022-12-22T12:05:48.437Z,9.66
2022-12-22T12:06:48.455Z,9.64
2022-12-22T12:07:48.437Z,9.59
2022-12-22T12:08:48.426Z,9.68
2022-12-22T12:09:48.417Z,9.59
2022-12-22T12:10:48.409Z,9.61
2022-12-22T12:11:48.407Z,9.61
2022-12-22T12:12:48.413Z,9.62
2022-12-22T12:13:48.401Z,9.73
2022-12-22T12:14:48.405Z,9.68
2022-12-22T12:15:48.518Z,9.72
2022-12-22T12:16:48.389Z,9.72
2022-12-22T12:17:48.389Z,9.65
2022-12-22T12:18:48.379Z,9.72
2022-12-22T12:19:48.379Z,9.79
2022-12-22T12:20:48.388Z,9.66
2022-12-22T12:21:48.367Z,9.69
2022-12-22T12:22:48.392Z,9.66
2022-12-22T12:23:48.362Z,9.68
2022-12-22T12:24:48.379Z,9.69
2022-12-22T12:25:48.357Z,9.72
2022-12-22T12:26:48.367Z,9.74
2022-12-22T12:27:48.346Z,9.79
2022-12-22T12:28:48.353Z,9.69
2022-12-22T12:30:06.246Z,9.68
2022-12-22T12:30:48.333Z,9.65
2022-12-22T12:31:48.677Z,9.72
2022-12-22T12:32:48.337Z,9.66
2022-12-22T12:33:48.320Z,9.72
2022-12-22T12:34:48.321Z,9.66
2022-12-22T12:35:48.320Z,9.65
2022-12-22T12:36:48.313Z,9.65
2022-12-22T12:37:48.307Z,9.66
2022-12-22T12:39:48.298Z,9.51
2022-12-22T12:40:48.297Z,9.65
2022-12-22T12:41:48.305Z,9.59
2022-12-22T12:42:48.295Z,9.72
2022-12-22T12:43:48.283Z,9.69
2022-12-22T12:44:48.284Z,9.59
2022-12-22T12:45:48.275Z,9.58
2022-12-22T12:46:48.346Z,9.59
2022-12-22T12:47:48.266Z,9.62
2022-12-22T12:48:48.273Z,9.59
2022-12-22T12:49:48.260Z,9.58
2022-12-22T12:50:48.257Z,9.64
2022-12-22T12:51:48.261Z,9.56
2022-12-22T12:52:48.249Z,9.58
2022-12-22T12:53:48.260Z,9.55
2022-12-22T12:54:48.263Z,9.55
2022-12-22T12:55:48.238Z,9.59
2022-12-22T12:56:48.233Z,9.58
2022-12-22T12:57:48.238Z,9.62
2022-12-22T12:58:48.227Z,9.58
2022-12-22T12:59:48.232Z,9.50
2022-12-22T13:00:52.491Z,9.62
2022-12-22T13:01:48.424Z,9.64
2022-12-22T13:02:48.373Z,9.56
2022-12-22T13:04:05.329Z,9.59
2022-12-22T13:04:48.284Z,9.56
2022-12-22T13:05:48.206Z,9.56
2022-12-22T13:06:51.105Z,9.56
2022-12-22T13:07:48.190Z,9.55
2022-12-22T13:08:48.187Z,9.54
2022-12-22T13:09:51.210Z,9.48
2022-12-22T13:10:48.208Z,9.58
2022-12-22T13:12:48.176Z,9.55
2022-12-22T13:13:48.223Z,9.50
2022-12-22T13:14:48.166Z,9.58
2022-12-22T13:15:48.262Z,9.51
2022-12-22T13:16:48.258Z,9.59
2022-12-22T13:17:48.328Z,9.58
2022-12-22T13:18:51.476Z,9.58
2022-12-22T13:19:48.150Z,9.61
2022-12-22T13:20:48.141Z,9.58
2022-12-22T13:21:53.471Z,9.55